createdAt,value
2023-02-28T00:00:30.864Z,56.10
2023-02-28T00:02:57.632Z,56.20
2023-02-28T00:05:26.271Z,56.20
2023-02-28T00:07:53.037Z,56.30
2023-02-28T00:10:21.975Z,56.30
2023-02-28T00:12:49.935Z,56.30
2023-02-28T00:15:17.792Z,56.30
2023-02-28T00:17:45.429Z,56.30
2023-02-28T00:20:13.376Z,56.50
2023-02-28T00:22:46.045Z,56.40
2023-02-28T00:25:15.142Z,56.30
2023-02-28T00:27:42.259Z,56.40
2023-02-28T00:30:11.990Z,56.50
2023-02-28T00:32:38.749Z,56.40
2023-02-28T00:35:06.820Z,56.60
2023-02-28T00:37:34.239Z,56.50
2023-02-28T00:40:01.140Z,56.60
2023-02-28T00:42:28.171Z,56.80
2023-02-28T00:44:55.248Z,56.60
2023-02-28T00:47:21.972Z,56.60
2023-02-28T00:49:49.186Z,56.70
2023-02-28T00:52:15.941Z,56.60
2023-02-28T00:54:42.684Z,56.60
2023-02-28T00:57:09.492Z,56.60
2023-02-28T00:59:36.402Z,56.70
2023-02-28T01:02:03.147Z,56.60
2023-02-28T01:04:30.090Z,56.70
2023-02-28T01:06:56.812Z,56.70
2023-02-28T01:09:23.626Z,56.70
2023-02-28T01:11:50.443Z,56.80
2023-02-28T01:14:18.186Z,56.70
2023-02-28T01:16:46.555Z,56.70
2023-02-28T01:19:13.413Z,56.70
2023-02-28T01:21:40.206Z,57.40
2023-02-28T01:24:07.981Z,56.70
2023-02-28T01:26:36.163Z,56.80
2023-02-28T01:29:02.903Z,56.70
2023-02-28T01:31:30.294Z,56.90
2023-02-28T01:33:57.217Z,56.90
2023-02-28T01:36:27.787Z,56.80
2023-02-28T01:38:56.396Z,56.90
2023-02-28T01:41:30.155Z,56.90
2023-02-28T01:44:04.149Z,57.00
2023-02-28T01:46:40.023Z,57.00
2023-02-28T01:49:13.368Z,56.90
2023-02-28T01:51:51.365Z,57.00
2023-02-28T01:54:26.561Z,57.00
2023-02-28T01:56:58.402Z,57.00
2023-02-28T01:59:33.068Z,57.10
2023-02-28T02:02:00.959Z,57.10
2023-02-28T02:04:38.509Z,57.10
2023-02-28T02:07:05.503Z,57.20
2023-02-28T02:09:32.227Z,57.10
2023-02-28T02:12:00.967Z,57.10
2023-02-28T02:14:58.929Z,57.20
2023-02-28T02:17:37.027Z,57.30
2023-02-28T02:20:12.766Z,57.30
2023-02-28T02:22:59.895Z,57.30
2023-02-28T02:25:37.458Z,57.40
2023-02-28T02:28:36.068Z,57.40
2023-02-28T02:31:36.461Z,57.40
2023-02-28T02:34:09.769Z,57.50
2023-02-28T02:36:42.817Z,57.50
2023-02-28T02:39:24.210Z,57.60
2023-02-28T02:41:54.455Z,57.60
2023-02-28T02:44:25.489Z,57.60
2023-02-28T02:47:06.664Z,57.60
2023-02-28T02:49:37.205Z,57.70
2023-02-28T02:52:09.836Z,57.60
2023-02-28T02:54:40.422Z,57.70
2023-02-28T02:57:12.143Z,57.70
2023-02-28T02:59:40.911Z,57.70
2023-02-28T03:02:11.371Z,57.80
2023-02-28T03:04:44.834Z,57.70
2023-02-28T03:07:11.570Z,57.80
2023-02-28T03:09:38.472Z,57.70
2023-02-28T03:12:13.039Z,57.70
2023-02-28T03:14:51.789Z,57.90
2023-02-28T03:17:30.528Z,57.90
2023-02-28T03:20:00.126Z,57.90
2023-02-28T03:22:52.030Z,57.90
2023-02-28T03:25:35.948Z,57.90
2023-02-28T03:28:08.586Z,58.00
2023-02-28T03:30:47.054Z,57.90
2023-02-28T03:33:17.020Z,58.00
2023-02-28T03:35:51.774Z,58.10
2023-02-28T03:38:23.754Z,58.10
2023-02-28T03:40:55.148Z,58.10
2023-02-28T03:43:30.644Z,58.00
2023-02-28T03:45:57.617Z,58.00
2023-02-28T03:48:34.017Z,58.10
2023-02-28T03:51:01.841Z,58.00
2023-02-28T03:53:41.868Z,58.00
2023-02-28T03:56:33.711Z,58.00
2023-02-28T03:59:10.180Z,58.10
2023-02-28T04:01:42.316Z,58.10
2023-02-28T04:04:10.299Z,58.10
2023-02-28T04:06:37.384Z,58.10
2023-02-28T04:09:06.247Z,58.10
2023-02-28T04:11:47.203Z,58.10
2023-02-28T04:14:13.995Z,58.10
2023-02-28T04:16:42.581Z,58.10
2023-02-28T04:19:10.951Z,58.10
2023-02-28T04:21:43.044Z,58.10
2023-02-28T04:24:15.329Z,58.10
2023-02-28T04:26:44.650Z,58.10
2023-02-28T04:29:13.367Z,58.10
2023-02-28T04:31:40.581Z,58.10
2023-02-28T04:34:07.916Z,58.10
2023-02-28T04:36:34.683Z,58.10
2023-02-28T04:39:01.446Z,58.10
2023-02-28T04:41:31.715Z,58.10
2023-02-28T04:43:59.189Z,58.00
2023-02-28T04:46:25.886Z,58.00
2023-02-28T04:48:52.605Z,58.10
2023-02-28T04:51:20.734Z,58.10
2023-02-28T04:53:49.161Z,58.00
2023-02-28T04:56:17.839Z,58.10
2023-02-28T04:58:44.795Z,58.10
2023-02-28T05:01:26.362Z,58.10
2023-02-28T05:03:55.098Z,58.10
2023-02-28T05:06:24.721Z,58.20
2023-02-28T05:08:51.973Z,58.10
2023-02-28T05:11:23.327Z,58.10
2023-02-28T05:13:50.587Z,58.20
2023-02-28T05:16:18.150Z,58.10
2023-02-28T05:18:45.061Z,58.10
2023-02-28T05:21:28.657Z,58.10
2023-02-28T05:23:57.142Z,58.20
2023-02-28T05:26:24.660Z,58.10
2023-02-28T05:28:51.422Z,58.10
2023-02-28T05:31:18.215Z,58.00
2023-02-28T05:33:44.940Z,58.10
2023-02-28T05:36:11.820Z,58.10
2023-02-28T05:38:39.005Z,58.10
2023-02-28T05:41:10.306Z,58.10
2023-02-28T05:43:38.014Z,58.10
2023-02-28T05:46:09.467Z,58.20
2023-02-28T05:48:37.405Z,58.20
2023-02-28T05:51:04.747Z,58.20
2023-02-28T05:53:32.232Z,58.20
2023-02-28T05:55:59.133Z,58.20
2023-02-28T05:58:31.652Z,58.20
2023-02-28T06:00:59.505Z,58.20
2023-02-28T06:03:26.438Z,58.20
2023-02-28T06:05:53.187Z,58.20
2023-02-28T06:08:19.933Z,58.20
2023-02-28T06:10:46.737Z,58.20
2023-02-28T06:13:13.916Z,58.20
2023-02-28T06:15:40.708Z,58.20
2023-02-28T06:18:07.523Z,58.20
2023-02-28T06:20:34.359Z,58.20
2023-02-28T06:23:01.130Z,58.20
2023-02-28T06:25:28.798Z,58.30
2023-02-28T06:27:56.198Z,58.20
2023-02-28T06:30:26.272Z,58.30
2023-02-28T06:32:53.455Z,58.30
2023-02-28T06:35:20.191Z,58.30
2023-02-28T06:37:48.046Z,58.30
2023-02-28T06:40:15.119Z,58.30
2023-02-28T06:42:42.179Z,58.30
2023-02-28T06:45:10.335Z,58.30
2023-02-28T06:47:38.704Z,58.30
2023-02-28T06:50:06.081Z,58.40
2023-02-28T06:52:33.133Z,58.40
2023-02-28T06:55:02.828Z,58.40
2023-02-28T06:57:31.910Z,58.40
2023-02-28T07:00:04.122Z,58.60
2023-02-28T07:02:30.981Z,58.60
2023-02-28T07:04:57.815Z,58.60
2023-02-28T07:07:24.532Z,58.70
2023-02-28T07:09:51.235Z,58.70
2023-02-28T07:12:18.227Z,58.70
2023-02-28T07:14:44.938Z,58.80
2023-02-28T07:17:13.177Z,58.80
2023-02-28T07:19:40.461Z,58.80
2023-02-28T07:22:07.865Z,58.80
2023-02-28T07:24:34.904Z,58.80
2023-02-28T07:27:02.456Z,58.90
2023-02-28T07:29:29.308Z,58.90
2023-02-28T07:31:57.379Z,59.00
2023-02-28T07:34:25.184Z,59.00
2023-02-28T07:36:54.796Z,59.10
2023-02-28T07:39:22.753Z,59.30
2023-02-28T07:41:50.393Z,59.40
2023-02-28T07:44:17.349Z,59.50
2023-02-28T07:46:44.163Z,59.60
2023-02-28T07:49:10.952Z,59.90
2023-02-28T07:51:37.709Z,59.80
2023-02-28T07:54:04.773Z,59.40
2023-02-28T07:56:32.097Z,58.90
2023-02-28T07:58:59.180Z,58.90
2023-02-28T08:01:25.926Z,58.70
2023-02-28T08:03:52.884Z,58.80
2023-02-28T08:06:22.889Z,58.90
2023-02-28T08:08:50.099Z,59.00
2023-02-28T08:11:17.593Z,59.20
2023-02-28T08:13:45.496Z,59.30
2023-02-28T08:16:16.466Z,59.40
2023-02-28T08:18:43.285Z,59.50
2023-02-28T08:21:11.096Z,59.50
2023-02-28T08:23:37.982Z,60.30
2023-02-28T08:26:04.919Z,59.80
2023-02-28T08:28:31.904Z,60.10
2023-02-28T08:30:59.061Z,60.50
2023-02-28T08:33:26.578Z,60.50
2023-02-28T08:35:57.232Z,60.60
2023-02-28T08:38:24.842Z,60.60
2023-02-28T08:40:59.548Z,57.60
2023-02-28T08:43:26.365Z,57.80
2023-02-28T08:45:57.941Z,58.60
2023-02-28T08:48:25.913Z,59.70
2023-02-28T08:51:08.993Z,60.60
2023-02-28T08:53:40.926Z,61.50
2023-02-28T08:56:10.280Z,61.70
2023-02-28T08:58:37.067Z,62.10
2023-02-28T09:01:15.848Z,62.10
2023-02-28T09:03:43.378Z,62.60
2023-02-28T09:06:11.175Z,61.70
2023-02-28T09:08:37.962Z,61.90
2023-02-28T09:11:05.250Z,62.80
2023-02-28T09:13:33.258Z,63.40
2023-02-28T09:16:02.209Z,63.70
2023-02-28T09:18:29.180Z,64.00
2023-02-28T09:20:57.481Z,64.20
2023-02-28T09:23:25.018Z,64.40
2023-02-28T09:25:54.643Z,64.50
2023-02-28T09:28:21.320Z,64.60
2023-02-28T09:30:53.757Z,65.20
2023-02-28T09:33:23.091Z,64.80
2023-02-28T09:36:03.032Z,64.80
2023-02-28T09:38:33.167Z,61.40
2023-02-28T09:41:02.665Z,61.90
2023-02-28T09:43:37.710Z,62.20
2023-02-28T09:46:27.364Z,62.70
2023-02-28T09:48:56.743Z,63.10
2023-02-28T09:51:45.179Z,64.10
2023-02-28T09:54:23.138Z,63.90
2023-02-28T09:57:10.900Z,64.20
2023-02-28T09:59:47.052Z,64.40
2023-02-28T10:02:31.232Z,64.40
2023-02-28T10:05:09.152Z,64.70
2023-02-28T10:07:46.058Z,64.70
2023-02-28T10:10:24.272Z,64.40
2023-02-28T10:12:54.706Z,64.20
2023-02-28T10:15:23.114Z,63.60
2023-02-28T10:18:07.863Z,62.90
2023-02-28T10:20:40.163Z,62.00
2023-02-28T10:23:24.020Z,61.40
2023-02-28T10:26:17.000Z,60.50
2023-02-28T10:28:44.299Z,59.70
2023-02-28T10:31:20.173Z,59.40
2023-02-28T10:33:47.402Z,58.40
2023-02-28T10:36:17.687Z,57.90
2023-02-28T10:38:45.770Z,57.10
2023-02-28T10:41:16.066Z,56.40
2023-02-28T10:43:45.847Z,55.60
2023-02-28T10:46:26.932Z,54.90
2023-02-28T10:49:01.991Z,53.30
2023-02-28T10:51:36.388Z,53.00
2023-02-28T10:54:03.969Z,52.60
2023-02-28T10:56:32.219Z,51.90
2023-02-28T10:59:29.845Z,42.90
2023-02-28T11:01:57.260Z,44.40
2023-02-28T11:04:24.097Z,46.50
2023-02-28T11:07:20.756Z,47.20
2023-02-28T11:09:50.539Z,47.10
2023-02-28T11:12:46.995Z,47.70
2023-02-28T11:15:25.138Z,47.80
2023-02-28T11:17:58.883Z,48.10
2023-02-28T11:20:31.799Z,47.80
2023-02-28T11:23:00.107Z,47.70
2023-02-28T11:25:30.156Z,47.30
2023-02-28T11:28:03.049Z,46.90
2023-02-28T11:30:36.133Z,46.60
2023-02-28T11:33:43.207Z,46.60
2023-02-28T11:36:12.137Z,46.10
2023-02-28T11:38:39.224Z,46.20
2023-02-28T11:41:29.408Z,45.80
2023-02-28T11:44:34.503Z,44.60
2023-02-28T11:47:14.113Z,44.00
2023-02-28T11:50:18.569Z,43.10
2023-02-28T11:52:54.630Z,41.90
2023-02-28T11:55:45.219Z,41.20
2023-02-28T11:58:18.331Z,39.10
2023-02-28T12:01:03.088Z,38.50
2023-02-28T12:04:04.212Z,37.20
2023-02-28T12:06:52.182Z,35.90
2023-02-28T12:09:37.919Z,36.00
2023-02-28T12:12:16.530Z,34.20
2023-02-28T12:15:02.837Z,33.70
2023-02-28T12:17:33.404Z,33.10
2023-02-28T12:20:14.603Z,32.90
2023-02-28T12:22:47.798Z,31.50
2023-02-28T12:25:45.717Z,30.90
2023-02-28T12:28:14.453Z,30.40
2023-02-28T12:31:04.944Z,30.10
2023-02-28T12:33:35.825Z,29.50
2023-02-28T12:36:10.945Z,29.60
2023-02-28T12:38:46.084Z,29.50
2023-02-28T12:41:19.258Z,29.40
2023-02-28T12:43:49.286Z,29.30
2023-02-28T12:46:20.968Z,29.50
2023-02-28T12:48:56.467Z,29.50
2023-02-28T12:51:24.096Z,29.30
2023-02-28T12:54:12.593Z,29.50
2023-02-28T12:56:56.150Z,29.20
2023-02-28T12:59:38.149Z,29.30
2023-02-28T13:02:22.873Z,29.10
2023-02-28T13:05:17.694Z,29.00
2023-02-28T13:07:55.261Z,29.20
2023-02-28T13:10:22.138Z,29.40
2023-02-28T13:12:55.115Z,29.60
2023-02-28T13:15:25.629Z,29.40
2023-02-28T13:17:54.820Z,29.40
2023-02-28T13:20:48.275Z,29.30
2023-02-28T13:23:42.442Z,29.10
2023-02-28T13:26:09.574Z,29.10
2023-02-28T13:29:02.291Z,29.40
2023-02-28T13:31:29.331Z,29.00
2023-02-28T13:33:59.232Z,29.20
2023-02-28T13:36:33.310Z,29.10
2023-02-28T13:39:24.111Z,28.80
2023-02-28T13:41:50.901Z,28.70
2023-02-28T13:44:18.812Z,28.80
2023-02-28T13:46:48.343Z,28.40
2023-02-28T13:49:34.789Z,28.10
2023-02-28T13:52:07.806Z,27.80
2023-02-28T13:54:46.409Z,27.90
2023-02-28T13:57:40.625Z,27.90
2023-02-28T14:00:17.922Z,27.70
2023-02-28T14:03:19.851Z,27.70
2023-02-28T14:05:47.085Z,27.70
2023-02-28T14:08:18.591Z,27.70
2023-02-28T14:10:47.958Z,27.50
2023-02-28T14:13:26.660Z,27.60
2023-02-28T14:16:01.579Z,27.70
2023-02-28T14:18:33.082Z,27.50
2023-02-28T14:21:09.297Z,27.60
2023-02-28T14:23:47.826Z,27.50
2023-02-28T14:26:52.164Z,27.50
2023-02-28T14:29:40.574Z,27.70
2023-02-28T14:32:36.246Z,27.90
2023-02-28T14:35:11.817Z,27.90
2023-02-28T14:37:40.924Z,27.80
2023-02-28T14:40:22.462Z,27.90
2023-02-28T14:42:56.656Z,28.10
2023-02-28T14:45:24.321Z,28.40
2023-02-28T14:47:52.344Z,28.70
2023-02-28T14:50:25.132Z,29.00
2023-02-28T14:52:54.338Z,29.20
2023-02-28T14:55:25.518Z,29.50
2023-02-28T14:58:00.899Z,29.70
2023-02-28T15:00:30.468Z,29.80
2023-02-28T15:03:00.700Z,30.00
2023-02-28T15:05:28.266Z,30.20
2023-02-28T15:08:17.993Z,30.30
2023-02-28T15:10:46.095Z,30.20
2023-02-28T15:13:15.514Z,30.50
2023-02-28T15:15:51.756Z,30.50
2023-02-28T15:18:45.980Z,28.80
2023-02-28T15:21:24.802Z,29.90
2023-02-28T15:24:07.764Z,29.90
2023-02-28T15:26:38.886Z,29.60
2023-02-28T15:29:22.401Z,29.70
2023-02-28T15:31:58.446Z,29.70
2023-02-28T15:34:43.453Z,29.90
2023-02-28T15:37:34.044Z,29.90
2023-02-28T15:40:32.383Z,29.80
2023-02-28T15:43:23.968Z,30.00
2023-02-28T15:46:04.657Z,30.20
2023-02-28T15:48:43.852Z,30.30
2023-02-28T15:51:24.854Z,30.30
2023-02-28T15:54:04.041Z,30.50
2023-02-28T15:56:32.870Z,30.70
2023-02-28T15:59:13.869Z,30.70
2023-02-28T16:01:40.733Z,30.60
2023-02-28T16:04:20.000Z,30.70
2023-02-28T16:06:49.383Z,30.40
2023-02-28T16:09:17.527Z,30.00
2023-02-28T16:11:47.396Z,29.10
2023-02-28T16:14:17.108Z,29.00
2023-02-28T16:16:50.367Z,29.50
2023-02-28T16:19:17.769Z,30.00
2023-02-28T16:21:44.778Z,30.10
2023-02-28T16:24:11.619Z,30.30
2023-02-28T16:26:40.527Z,30.60
2023-02-28T16:29:07.811Z,30.90
2023-02-28T16:31:38.101Z,31.00
2023-02-28T16:34:06.116Z,31.30
2023-02-28T16:36:33.113Z,31.50
2023-02-28T16:38:59.902Z,31.70
2023-02-28T16:41:28.958Z,32.10
2023-02-28T16:43:59.568Z,32.30
2023-02-28T16:46:29.053Z,32.90
2023-02-28T16:48:55.791Z,33.10
2023-02-28T16:51:22.585Z,33.30
2023-02-28T16:53:49.725Z,33.50
2023-02-28T16:56:24.956Z,33.70
2023-02-28T16:58:52.586Z,34.00
2023-02-28T17:01:23.124Z,34.30
2023-02-28T17:03:50.560Z,34.50
2023-02-28T17:06:23.522Z,34.80
2023-02-28T17:08:51.350Z,35.20
2023-02-28T17:11:19.069Z,35.30
2023-02-28T17:13:46.092Z,35.40
2023-02-28T17:16:31.248Z,35.80
2023-02-28T17:19:03.952Z,36.20
2023-02-28T17:21:31.281Z,36.20
2023-02-28T17:23:58.657Z,36.40
2023-02-28T17:26:25.960Z,36.60
2023-02-28T17:28:57.178Z,36.70
2023-02-28T17:31:25.286Z,36.90
2023-02-28T17:33:52.501Z,37.10
2023-02-28T17:36:24.117Z,37.30
2023-02-28T17:38:51.249Z,37.50
2023-02-28T17:41:18.038Z,37.70
2023-02-28T17:43:44.746Z,37.90
2023-02-28T17:46:22.193Z,38.10
2023-02-28T17:48:50.382Z,38.30
2023-02-28T17:51:18.051Z,38.40
2023-02-28T17:53:44.829Z,38.70
2023-02-28T17:56:17.510Z,39.00
2023-02-28T17:58:44.440Z,39.20
2023-02-28T18:01:12.995Z,39.30
2023-02-28T18:03:40.357Z,39.60
2023-02-28T18:06:08.167Z,39.50
2023-02-28T18:08:36.230Z,39.70
2023-02-28T18:11:03.082Z,40.00
2023-02-28T18:13:29.869Z,40.00
2023-02-28T18:18:38.716Z,40.30
2023-02-28T18:21:07.012Z,35.90
2023-02-28T18:23:34.044Z,37.20
2023-02-28T18:26:00.807Z,37.80
2023-02-28T18:28:27.882Z,38.10
2023-02-28T18:30:54.622Z,38.40
2023-02-28T18:33:21.333Z,38.80
2023-02-28T18:35:55.921Z,39.00
2023-02-28T18:38:23.219Z,39.20
2023-02-28T18:40:55.944Z,39.40
2023-02-28T18:43:23.171Z,39.60
2023-02-28T18:45:50.269Z,39.70
2023-02-28T18:48:19.539Z,40.00
2023-02-28T18:50:50.436Z,40.10
2023-02-28T18:53:18.209Z,40.30
2023-02-28T18:55:45.201Z,40.30
2023-02-28T18:58:11.913Z,40.50
2023-02-28T19:00:38.777Z,40.70
2023-02-28T19:03:05.736Z,40.80
2023-02-28T19:05:34.479Z,41.00
2023-02-28T19:08:04.973Z,41.20
2023-02-28T19:10:31.916Z,41.30
2023-02-28T19:12:58.612Z,41.40
2023-02-28T19:15:25.318Z,41.50
2023-02-28T19:17:52.148Z,41.60
2023-02-28T19:20:19.743Z,42.40
2023-02-28T19:22:46.482Z,41.90
2023-02-28T19:25:13.288Z,42.10
2023-02-28T19:27:40.037Z,42.00
2023-02-28T19:30:07.832Z,42.00
2023-02-28T19:32:34.985Z,42.20
2023-02-28T19:35:02.699Z,42.50
2023-02-28T19:37:29.610Z,42.30
2023-02-28T19:39:56.980Z,42.50
2023-02-28T19:42:24.736Z,42.60
2023-02-28T19:44:51.516Z,42.60
2023-02-28T19:47:18.312Z,42.60
2023-02-28T19:49:45.036Z,42.60
2023-02-28T19:52:15.023Z,42.70
2023-02-28T19:54:42.470Z,42.60
2023-02-28T19:57:09.193Z,42.90
2023-02-28T19:59:39.746Z,42.90
2023-02-28T20:02:14.274Z,43.00
2023-02-28T20:04:41.488Z,43.10
2023-02-28T20:07:08.282Z,43.00
2023-02-28T20:09:35.265Z,43.00
2023-02-28T20:12:05.220Z,43.80
2023-02-28T20:14:33.972Z,42.90
2023-02-28T20:17:00.807Z,43.60
2023-02-28T20:19:27.703Z,44.20
2023-02-28T20:21:54.440Z,44.00
2023-02-28T20:24:25.754Z,43.90
2023-02-28T20:26:53.152Z,44.00
2023-02-28T20:29:19.914Z,44.00
2023-02-28T20:31:46.887Z,44.00
2023-02-28T20:34:13.757Z,44.10
2023-02-28T20:36:40.612Z,44.10
2023-02-28T20:39:07.555Z,44.20
2023-02-28T20:41:34.333Z,44.10
2023-02-28T20:44:03.870Z,44.10
2023-02-28T20:46:31.563Z,44.10
2023-02-28T20:48:58.521Z,44.20
2023-02-28T20:51:25.268Z,44.20
2023-02-28T20:53:52.583Z,44.30
2023-02-28T20:56:23.702Z,44.30
2023-02-28T20:58:52.453Z,44.30
2023-02-28T21:01:28.030Z,44.40
2023-02-28T21:03:59.779Z,44.40
2023-02-28T21:06:29.654Z,44.50
2023-02-28T21:08:57.609Z,45.20
2023-02-28T21:11:30.032Z,44.60
2023-02-28T21:13:59.210Z,44.60
2023-02-28T21:16:27.111Z,44.70
2023-02-28T21:18:54.192Z,44.60
2023-02-28T21:21:23.590Z,44.70
2023-02-28T21:23:51.815Z,44.70
2023-02-28T21:26:21.004Z,44.60
2023-02-28T21:28:52.057Z,44.80
2023-02-28T21:31:19.768Z,45.50
2023-02-28T21:33:46.838Z,44.80
2023-02-28T21:36:18.680Z,44.90
2023-02-28T21:38:47.224Z,45.00
2023-02-28T21:41:15.404Z,44.80
2023-02-28T21:43:43.130Z,44.80
2023-02-28T21:46:12.569Z,44.90
2023-02-28T21:48:39.757Z,45.00
2023-02-28T21:51:10.142Z,45.00
2023-02-28T21:53:38.097Z,45.00
2023-02-28T21:56:07.165Z,45.10
2023-02-28T21:58:33.944Z,45.10
2023-02-28T22:01:11.692Z,45.10
2023-02-28T22:03:39.280Z,45.10
2023-02-28T22:06:12.523Z,45.20
2023-02-28T22:08:40.548Z,45.10
2023-02-28T22:11:08.956Z,45.20
2023-02-28T22:13:36.743Z,45.20
2023-02-28T22:16:06.271Z,45.30
2023-02-28T22:18:36.576Z,45.30
2023-02-28T22:21:03.688Z,45.60
2023-02-28T22:23:30.720Z,45.50
2023-02-28T22:26:00.428Z,45.50
2023-02-28T22:28:30.019Z,45.60
2023-02-28T22:30:57.944Z,45.50
2023-02-28T22:33:25.220Z,45.60
2023-02-28T22:35:52.093Z,45.70
2023-02-28T22:38:19.627Z,45.60
2023-02-28T22:40:46.655Z,45.70
2023-02-28T22:43:13.447Z,45.70
2023-02-28T22:45:41.093Z,45.70
2023-02-28T22:48:09.527Z,45.70
2023-02-28T22:50:36.270Z,45.70
2023-02-28T22:53:03.000Z,45.70
2023-02-28T22:55:29.735Z,45.80
2023-02-28T22:57:56.489Z,45.80
2023-02-28T23:00:24.295Z,45.80
2023-02-28T23:02:51.054Z,45.90
2023-02-28T23:05:18.116Z,46.00
2023-02-28T23:07:44.840Z,45.90
2023-02-28T23:10:17.034Z,45.90
2023-02-28T23:12:53.378Z,45.80
2023-02-28T23:15:21.309Z,45.90
2023-02-28T23:17:49.140Z,46.00
2023-02-28T23:20:19.158Z,46.00
2023-02-28T23:22:46.499Z,46.00
2023-02-28T23:25:13.903Z,46.10
2023-02-28T23:27:40.727Z,46.10
2023-02-28T23:30:08.712Z,46.10
2023-02-28T23:32:35.526Z,46.20
2023-02-28T23:35:02.648Z,46.10
2023-02-28T23:37:32.397Z,46.10
2023-02-28T23:39:59.100Z,46.20
2023-02-28T23:42:25.810Z,46.10
2023-02-28T23:44:52.591Z,46.10
2023-02-28T23:47:19.402Z,46.10
2023-02-28T23:49:48.238Z,46.20
2023-02-28T23:52:15.033Z,46.20
2023-02-28T23:54:41.881Z,46.40
2023-02-28T23:57:09.681Z,46.40
2023-02-28T23:59:36.732Z,46.40
